This is the latest recevied weather packets stored in our database for station/object N8BAP. If no packets are shown the sender has not sent any weather packets the latest 10 day(s).
| Time | Temp. | Humidity | Pressure | Rain* | Wind** | Luminosity | Snow |
|---|---|---|---|---|---|---|---|
| 1778089407 | 14.44° C | 56% | 1017.8 hPa | 0 mm | - | 747 W/m² | - |
| 1778089105 | 14.44° C | 56% | 1017.9 hPa | 0 mm | - | 778 W/m² | - |
| 1778088801 | 14.44° C | 60% | 1017.6 hPa | 0 mm | - | 633 W/m² | - |
| 1778088498 | 14.44° C | 57% | 1017.7 hPa | 0 mm | - | 683 W/m² | - |
| 1778088194 | 14.44° C | 59% | 1017.8 hPa | 0 mm | - | 719 W/m² | - |
| 1778087887 | 14.44° C | 62% | 1017.9 hPa | 0 mm | - | 731 W/m² | - |
| 1778087584 | 15° C | 63% | 1017.8 hPa | 0 mm | - | 735 W/m² | - |
| 1778087282 | 13.89° C | 65% | 1017.8 hPa | 0 mm | - | 739 W/m² | - |
| 1778086977 | 13.89° C | 62% | 1018.1 hPa | 0 mm | - | 729 W/m² | - |
| 1778086677 | 13.89° C | 58% | 1018.3 hPa | 0 mm | - | 658 W/m² | - |
| 1778086374 | 13.89° C | 64% | 1018 hPa | 0 mm | - | 816 W/m² | - |
| 1778086070 | 13.89° C | 65% | 1017.8 hPa | 0 mm | - | 794 W/m² | - |
| 1778085767 | 13.89° C | 59% | 1018 hPa | 0 mm | - | 778 W/m² | - |
| 1778085463 | 13.89° C | 59% | 1017.7 hPa | 0 mm | - | 734 W/m² | - |
| 1778085158 | 13.89° C | 66% | 1017.8 hPa | 0 mm | - | 542 W/m² | - |
| 1778084855 | 13.89° C | 64% | 1017.7 hPa | 0 mm | - | 638 W/m² | - |
| 1778084553 | 13.33° C | 67% | 1017.6 hPa | 0 mm | - | 580 W/m² | - |
| 1778084249 | 12.78° C | 64% | 1017.7 hPa | 0 mm | - | 551 W/m² | - |
| 1778083946 | 12.78° C | 65% | 1017.8 hPa | 0 mm | - | 478 W/m² | - |
| 1778083644 | 12.78° C | 67% | 1017.9 hPa | 0 mm | - | 546 W/m² | - |
| 1778083340 | 12.78° C | 68% | 1018 hPa | 0 mm | - | 558 W/m² | - |
| 1778083039 | 12.78° C | 67% | 1018 hPa | 0 mm | - | 465 W/m² | - |
| 1778082736 | 12.78° C | 68% | 1017.8 hPa | 0 mm | - | 464 W/m² | - |
| 1778081597 | 13.33° C | 74% | 1017.4 hPa | 0 mm | - | 778 W/m² | - |
| 1778081294 | 12.78° C | 72% | 1017.2 hPa | 0 mm | - | 783 W/m² | - |
* Rain latest hour (hover to see other rain measurements)
** Current wind speed in m/s (hover to see current wind gust speed)